Time,TemperatureF,DewpointF,PressureIn,WindDirection,WindDirectionDegrees,WindSpeedMPH,WindSpeedGustMPH,Humidity,HourlyPrecipIn,Conditions,Clouds,dailyrainin,SolarRadiationWatts/m^2,SoftwareType,DateUTC
2013-08-28 10:43:00,67.0,45.0,-100.00,ESE,115,1.0,10.0,45,0.00,,,0.00,556.000000,,2013-08-28 17:43:00,
2013-08-28 10:52:00,67.0,45.0,-100.00,ESE,115,1.0,10.0,45,0.00,,,0.00,556.000000,,2013-08-28 17:52:00,
2013-08-28 12:42:00,75.0,42.0,-100.00,North,9,0.0,9.0,31,-99.99,,,0.00,917.000000,,2013-08-28 19:42:00,
2013-08-28 13:43:00,77.0,39.0,-100.00,East,100,1.0,10.0,26,-99.99,,,0.00,971.000000,,2013-08-28 20:43:00,
2013-08-28 13:55:00,76.0,38.0,-100.00,WNW,300,0.0,12.0,25,-99.99,,,-99.99,859.000000,,2013-08-28 20:55:00,
2013-08-28 14:22:00,76.0,38.0,-100.00,WNW,300,0.0,12.0,25,-99.99,,,-99.99,859.000000,,2013-08-28 21:22:00,
2013-08-28 14:35:00,76.0,38.0,-100.00,WNW,300,0.0,12.0,25,-99.99,,,-99.99,859.000000,,2013-08-28 21:35:00,
2013-08-28 14:44:00,76.0,38.0,-100.00,WNW,300,0.0,12.0,25,-99.99,,,-99.99,859.000000,,2013-08-28 21:44:00,
2013-08-28 15:43:00,79.0,38.0,-100.00,NE,50,1.0,11.0,23,0.00,,,0.00,807.000000,,2013-08-28 22:43:00,
2013-08-28 16:22:00,76.0,41.0,-100.00,NW,322,1.0,9.0,28,0.00,,,0.00,346.000000,,2013-08-28 23:22:00,
2013-08-28 16:33:00,76.0,41.0,-100.00,NW,322,1.0,9.0,28,0.00,,,0.00,346.000000,,2013-08-28 23:33:00,
2013-08-28 16:42:00,76.0,41.0,-100.00,NW,322,1.0,9.0,28,0.00,,,0.00,346.000000,,2013-08-28 23:42:00,
2013-08-28 16:53:00,76.0,41.0,-100.00,NW,322,1.0,9.0,28,0.00,,,0.00,346.000000,,2013-08-28 23:53:00,
2013-08-28 18:22:00,71.0,40.0,-100.00,NW,314,0.0,6.0,33,0.00,,,0.00,97.000000,,2013-08-29 01:22:00,
2013-08-28 18:32:00,71.0,40.0,-100.00,NW,314,0.0,6.0,33,0.00,,,0.00,97.000000,,2013-08-29 01:32:00,
2013-08-28 18:42:00,71.0,40.0,-100.00,NW,314,0.0,6.0,33,0.00,,,0.00,97.000000,,2013-08-29 01:42:00,
2013-08-28 18:52:00,71.0,40.0,-100.00,NW,314,0.0,6.0,33,0.00,,,0.00,97.000000,,2013-08-29 01:52:00,
2013-08-28 19:22:00,64.0,46.0,-100.00,West,276,0.0,0.0,52,0.00,,,0.00,59.000000,,2013-08-29 02:22:00,
2013-08-28 19:32:00,64.0,46.0,-100.00,West,276,0.0,0.0,52,0.00,,,0.00,59.000000,,2013-08-29 02:32:00,
2013-08-28 19:43:00,64.0,46.0,-100.00,West,276,0.0,0.0,52,0.00,,,0.00,59.000000,,2013-08-29 02:43:00,
2013-08-28 19:52:00,64.0,46.0,-100.00,West,276,0.0,0.0,52,0.00,,,0.00,59.000000,,2013-08-29 02:52:00,
2013-08-28 19:55:00,61.0,48.0,-100.00,West,270,0.0,0.0,63,0.00,,,0.00,15.000000,,2013-08-29 02:55:00,
2013-08-28 20:22:00,61.0,48.0,-100.00,West,270,0.0,0.0,63,0.00,,,0.00,15.000000,,2013-08-29 03:22:00,
2013-08-28 20:37:00,61.0,48.0,-100.00,West,270,0.0,0.0,63,0.00,,,0.00,15.000000,,2013-08-29 03:37:00,
2013-08-28 20:45:00,61.0,48.0,-100.00,West,270,0.0,0.0,63,0.00,,,0.00,15.000000,,2013-08-29 03:45:00,
2013-08-28 21:28:00,58.0,47.0,-100.00,West,269,0.0,0.0,68,0.00,,,0.00,0.000000,,2013-08-29 04:28:00,
2013-08-28 21:37:00,58.0,47.0,-100.00,West,269,0.0,0.0,68,0.00,,,0.00,0.000000,,2013-08-29 04:37:00,
2013-08-28 21:45:00,58.0,47.0,-100.00,West,269,0.0,0.0,68,0.00,,,0.00,0.000000,,2013-08-29 04:45:00,
2013-08-28 21:54:00,58.0,47.0,-100.00,West,269,0.0,0.0,68,0.00,,,0.00,0.000000,,2013-08-29 04:54:00,
2013-08-28 22:23:00,58.0,48.0,-100.00,West,274,0.0,0.0,70,0.00,,,0.00,0.000000,,2013-08-29 05:23:00,
2013-08-28 22:34:00,58.0,48.0,-100.00,West,274,0.0,0.0,70,0.00,,,0.00,0.000000,,2013-08-29 05:34:00,
2013-08-28 22:42:00,58.0,48.0,-100.00,West,274,0.0,0.0,70,0.00,,,0.00,0.000000,,2013-08-29 05:42:00,
2013-08-28 22:52:00,58.0,48.0,-100.00,West,274,0.0,0.0,70,0.00,,,0.00,0.000000,,2013-08-29 05:52:00,
2013-08-28 23:22:00,55.0,47.0,-100.00,West,279,0.0,0.0,73,0.00,,,0.00,0.000000,,2013-08-29 06:22:00,
2013-08-28 23:32:00,55.0,47.0,-100.00,West,279,0.0,0.0,73,0.00,,,0.00,0.000000,,2013-08-29 06:32:00,
2013-08-28 23:43:00,55.0,47.0,-100.00,West,279,0.0,0.0,73,0.00,,,0.00,0.000000,,2013-08-29 06:43:00,
2013-08-28 23:52:00,55.0,47.0,-100.00,West,279,0.0,0.0,73,0.00,,,0.00,0.000000,,2013-08-29 06:52:00,